createdAt,value
2016-09-09T00:00:47.721Z,0.00
2016-09-09T00:01:48.238Z,0.00
2016-09-09T00:02:48.898Z,0.00
2016-09-09T00:03:49.262Z,0.00
2016-09-09T00:04:49.786Z,0.00
2016-09-09T00:05:50.294Z,0.00
2016-09-09T00:06:50.958Z,0.00
2016-09-09T00:07:51.470Z,0.00
2016-09-09T00:08:51.865Z,0.00
2016-09-09T00:09:52.350Z,0.00
2016-09-09T00:10:52.867Z,0.00
2016-09-09T00:11:53.538Z,0.00
2016-09-09T00:12:54.053Z,0.00
2016-09-09T00:13:54.427Z,0.00
2016-09-09T00:14:54.939Z,0.00
2016-09-09T00:15:55.458Z,0.00
2016-09-09T00:16:56.119Z,0.00
2016-09-09T00:17:56.483Z,0.00
2016-09-09T00:18:57.000Z,0.00
2016-09-09T00:19:57.521Z,0.00
2016-09-09T00:20:58.036Z,0.00
2016-09-09T00:21:58.546Z,0.00
2016-09-09T00:22:59.074Z,0.00
2016-09-09T00:23:59.725Z,0.00
2016-09-09T00:25:00.091Z,0.00
2016-09-09T00:26:00.604Z,0.00
2016-09-09T00:27:01.119Z,0.00
2016-09-09T00:28:01.632Z,0.00
2016-09-09T00:29:02.146Z,0.00
2016-09-09T00:30:02.662Z,0.00
2016-09-09T00:31:03.176Z,0.00
2016-09-09T00:32:03.841Z,0.00
2016-09-09T00:33:04.226Z,0.00
2016-09-09T00:34:04.720Z,0.00
2016-09-09T00:35:05.233Z,0.00
2016-09-09T00:36:05.756Z,0.00
2016-09-09T00:37:06.260Z,0.00
2016-09-09T00:38:06.770Z,0.00
2016-09-09T00:39:07.440Z,0.00
2016-09-09T00:40:07.954Z,0.00
2016-09-09T00:41:08.318Z,0.00
2016-09-09T00:42:08.981Z,0.00
2016-09-09T00:43:09.347Z,0.00
2016-09-09T00:44:09.858Z,0.00
2016-09-09T00:45:10.534Z,0.00
2016-09-09T00:46:10.894Z,0.00
2016-09-09T00:47:11.410Z,0.00
2016-09-09T00:48:12.080Z,0.00
2016-09-09T00:49:12.591Z,0.00
2016-09-09T00:50:12.958Z,0.00
2016-09-09T00:51:13.476Z,0.00
2016-09-09T00:52:13.991Z,0.00
2016-09-09T00:53:14.502Z,0.00
2016-09-09T00:54:15.013Z,0.00
2016-09-09T00:55:15.546Z,0.00
2016-09-09T00:56:16.044Z,0.00
2016-09-09T00:57:16.565Z,0.00
2016-09-09T00:58:17.070Z,0.00
2016-09-09T00:59:17.586Z,0.00
2016-09-09T01:00:18.105Z,0.00
2016-09-09T01:01:18.627Z,0.00
2016-09-09T01:02:19.130Z,0.00
2016-09-09T01:03:21.443Z,0.00
2016-09-09T01:04:20.154Z,0.00
2016-09-09T01:05:20.670Z,0.00
2016-09-09T01:06:21.333Z,0.00
2016-09-09T01:07:21.699Z,0.00
2016-09-09T01:08:22.220Z,0.00
2016-09-09T01:09:22.727Z,0.00
2016-09-09T01:10:23.248Z,0.00
2016-09-09T01:11:23.764Z,0.00
2016-09-09T01:12:24.275Z,0.00
2016-09-09T01:13:24.937Z,0.00
2016-09-09T01:14:25.305Z,0.00
2016-09-09T01:15:25.823Z,0.00
2016-09-09T01:16:26.362Z,0.00
2016-09-09T01:17:26.844Z,0.00
2016-09-09T01:18:27.360Z,0.00
2016-09-09T01:19:28.025Z,0.00
2016-09-09T01:20:28.385Z,0.00
2016-09-09T01:21:28.898Z,0.00
2016-09-09T01:22:29.712Z,0.00
2016-09-09T01:23:29.928Z,0.00
2016-09-09T01:24:30.598Z,0.00
2016-09-09T01:25:30.967Z,0.00
2016-09-09T01:26:31.494Z,0.00
2016-09-09T01:27:32.010Z,0.00
2016-09-09T01:28:32.521Z,0.00
2016-09-09T01:29:33.032Z,0.00
2016-09-09T01:30:33.562Z,0.00
2016-09-09T01:31:34.063Z,0.00
2016-09-09T01:32:34.730Z,0.00
2016-09-09T01:33:36.893Z,0.00
2016-09-09T01:34:35.605Z,0.00
2016-09-09T01:35:36.119Z,0.00
2016-09-09T01:36:36.660Z,0.00
2016-09-09T01:37:37.151Z,0.00
2016-09-09T01:38:37.665Z,0.00
2016-09-09T01:39:38.334Z,0.00
2016-09-09T01:40:38.845Z,0.00
2016-09-09T01:41:39.212Z,0.00
2016-09-09T01:42:39.729Z,0.00
2016-09-09T01:43:40.239Z,0.00
2016-09-09T01:44:40.906Z,0.00
2016-09-09T01:45:41.441Z,0.00
2016-09-09T01:46:41.787Z,0.00
2016-09-09T01:47:42.302Z,0.00
2016-09-09T01:48:42.967Z,0.00
2016-09-09T01:49:43.331Z,0.00
2016-09-09T01:50:43.847Z,0.00
2016-09-09T01:51:44.363Z,0.00
2016-09-09T01:52:46.820Z,0.00
2016-09-09T01:53:45.385Z,0.00
2016-09-09T01:54:45.896Z,0.00
2016-09-09T01:55:46.413Z,0.00
2016-09-09T01:56:47.074Z,0.00
2016-09-09T01:57:47.437Z,0.00
2016-09-09T01:58:49.001Z,0.00
2016-09-09T01:59:48.466Z,0.00
2016-09-09T02:00:48.977Z,0.00
2016-09-09T02:01:49.646Z,0.00
2016-09-09T02:02:50.168Z,0.00
2016-09-09T02:03:50.533Z,0.00
2016-09-09T02:04:51.050Z,0.00
2016-09-09T02:05:51.563Z,0.00
2016-09-09T02:06:52.110Z,0.00
2016-09-09T02:07:52.593Z,0.00
2016-09-09T02:08:53.111Z,0.00
2016-09-09T02:09:53.775Z,0.00
2016-09-09T02:10:54.142Z,0.00
2016-09-09T02:11:54.652Z,0.00
2016-09-09T02:12:55.162Z,0.00
2016-09-09T02:13:55.673Z,0.00
2016-09-09T02:14:56.188Z,0.00
2016-09-09T02:15:56.704Z,0.00
2016-09-09T02:16:57.219Z,0.00
2016-09-09T02:17:57.730Z,0.00
2016-09-09T02:18:58.250Z,0.00
2016-09-09T02:19:58.906Z,0.00
2016-09-09T02:20:59.266Z,0.00
2016-09-09T02:21:59.938Z,0.00
2016-09-09T02:23:00.295Z,0.00
2016-09-09T02:24:00.963Z,0.00
2016-09-09T02:25:01.332Z,0.00
2016-09-09T02:26:01.842Z,0.00
2016-09-09T02:27:02.411Z,0.00
2016-09-09T02:28:02.876Z,0.00
2016-09-09T02:29:03.397Z,0.00
2016-09-09T02:30:04.055Z,0.00
2016-09-09T02:31:04.414Z,0.00
2016-09-09T02:32:05.239Z,0.00
2016-09-09T02:33:05.443Z,0.00
2016-09-09T02:34:05.958Z,0.00
2016-09-09T02:35:06.469Z,0.00
2016-09-09T02:36:06.989Z,0.00
2016-09-09T02:37:07.509Z,0.00
2016-09-09T02:38:08.022Z,0.00
2016-09-09T02:39:08.547Z,0.00
2016-09-09T02:40:09.058Z,0.00
2016-09-09T02:41:09.731Z,0.00
2016-09-09T02:42:11.599Z,0.00
2016-09-09T02:43:10.606Z,0.00
2016-09-09T02:44:11.125Z,0.00
2016-09-09T02:45:11.636Z,0.00
2016-09-09T02:46:12.302Z,0.00
2016-09-09T02:47:12.964Z,0.00
2016-09-09T02:48:13.208Z,0.00
2016-09-09T02:49:13.706Z,0.00
2016-09-09T02:50:14.211Z,0.00
2016-09-09T02:51:14.724Z,0.00
2016-09-09T02:52:15.400Z,0.00
2016-09-09T02:53:15.755Z,0.00
2016-09-09T02:54:16.270Z,0.00
2016-09-09T02:55:16.796Z,0.00
2016-09-09T02:56:17.298Z,0.00
2016-09-09T02:57:17.817Z,0.00
2016-09-09T02:58:18.358Z,0.00
2016-09-09T02:59:18.841Z,0.00
2016-09-09T03:00:19.356Z,0.00
2016-09-09T03:01:19.878Z,0.00
2016-09-09T03:02:20.387Z,0.00
2016-09-09T03:03:21.050Z,0.00
2016-09-09T03:04:21.415Z,0.00
2016-09-09T03:05:22.081Z,0.00
2016-09-09T03:06:22.596Z,0.00
2016-09-09T03:07:22.967Z,0.00
2016-09-09T03:08:23.477Z,0.00
2016-09-09T03:09:23.990Z,0.00
2016-09-09T03:10:24.509Z,0.00
2016-09-09T03:11:25.027Z,0.00
2016-09-09T03:12:25.539Z,0.00
2016-09-09T03:13:26.056Z,0.00
2016-09-09T03:14:26.572Z,0.00
2016-09-09T03:15:27.091Z,0.00
2016-09-09T03:16:27.608Z,0.00
2016-09-09T03:17:28.133Z,0.00
2016-09-09T03:18:28.642Z,0.00
2016-09-09T03:19:29.308Z,0.00
2016-09-09T03:20:29.820Z,0.00
2016-09-09T03:21:30.192Z,0.00
2016-09-09T03:22:30.853Z,0.00
2016-09-09T03:23:31.213Z,0.00
2016-09-09T03:24:31.751Z,0.00
2016-09-09T03:25:32.396Z,0.00
2016-09-09T03:26:32.761Z,0.00
2016-09-09T03:27:33.422Z,0.00
2016-09-09T03:28:33.789Z,0.00
2016-09-09T03:29:34.302Z,0.00
2016-09-09T03:30:34.811Z,0.00
2016-09-09T03:31:35.327Z,0.00
2016-09-09T03:32:35.838Z,0.00
2016-09-09T03:33:36.512Z,0.00
2016-09-09T03:34:36.869Z,0.00
2016-09-09T03:35:37.383Z,0.00
2016-09-09T03:36:37.892Z,0.00
2016-09-09T03:37:38.583Z,0.00
2016-09-09T03:38:38.916Z,0.00
2016-09-09T03:39:39.432Z,0.00
2016-09-09T03:40:39.949Z,0.00
2016-09-09T03:41:40.611Z,0.00
2016-09-09T03:42:41.272Z,0.00
2016-09-09T03:43:41.484Z,0.00
2016-09-09T03:44:42.004Z,0.00
2016-09-09T03:45:42.521Z,0.00
2016-09-09T03:46:43.031Z,0.00
2016-09-09T03:47:43.554Z,0.00
2016-09-09T03:48:44.061Z,0.00
2016-09-09T03:49:44.579Z,0.00
2016-09-09T03:50:45.091Z,0.00
2016-09-09T03:51:45.612Z,0.00
2016-09-09T03:52:46.129Z,0.00
2016-09-09T03:53:46.790Z,0.00
2016-09-09T03:54:47.305Z,0.00
2016-09-09T03:55:47.977Z,0.00
2016-09-09T03:56:48.189Z,0.00
2016-09-09T03:57:48.714Z,0.00
2016-09-09T03:58:49.213Z,0.00
2016-09-09T03:59:49.877Z,0.00
2016-09-09T04:00:50.236Z,0.00
2016-09-09T04:01:50.763Z,0.00
2016-09-09T04:02:51.421Z,0.00
2016-09-09T04:03:51.783Z,0.00
2016-09-09T04:04:52.447Z,0.00
2016-09-09T04:05:52.816Z,0.00
2016-09-09T04:06:53.479Z,0.00
2016-09-09T04:07:53.845Z,0.00
2016-09-09T04:08:54.356Z,0.00
2016-09-09T04:09:54.874Z,0.00
2016-09-09T04:10:55.542Z,0.00
2016-09-09T04:11:55.903Z,0.00
2016-09-09T04:12:56.427Z,0.00
2016-09-09T04:13:57.084Z,0.00
2016-09-09T04:14:57.447Z,0.00
2016-09-09T04:15:57.962Z,0.00
2016-09-09T04:16:58.480Z,0.00
2016-09-09T04:17:58.988Z,0.00
2016-09-09T04:18:59.501Z,0.00
2016-09-09T04:20:00.011Z,0.00
2016-09-09T04:21:00.529Z,0.00
2016-09-09T04:22:01.044Z,0.00
2016-09-09T04:23:01.555Z,0.00
2016-09-09T04:24:02.075Z,0.00
2016-09-09T04:25:02.587Z,0.00
2016-09-09T04:26:03.108Z,0.00
2016-09-09T04:27:03.623Z,0.00
2016-09-09T04:28:04.161Z,0.00
2016-09-09T04:29:04.657Z,0.00
2016-09-09T04:30:05.175Z,0.00
2016-09-09T04:31:05.695Z,0.00
2016-09-09T04:32:06.208Z,0.00
2016-09-09T04:33:06.721Z,0.00
2016-09-09T04:34:07.242Z,0.00
2016-09-09T04:35:07.750Z,0.00
2016-09-09T04:36:08.414Z,0.00
2016-09-09T04:37:08.781Z,0.00
2016-09-09T04:38:09.314Z,0.00
2016-09-09T04:39:09.812Z,0.00
2016-09-09T04:40:10.331Z,0.00
2016-09-09T04:41:10.843Z,0.00
2016-09-09T04:42:11.513Z,0.00
2016-09-09T04:43:11.870Z,0.00
2016-09-09T04:44:12.536Z,0.00
2016-09-09T04:45:13.046Z,0.00
2016-09-09T04:46:13.414Z,0.00
2016-09-09T04:47:13.928Z,0.00
2016-09-09T04:48:14.451Z,0.00
2016-09-09T04:49:14.955Z,0.00
2016-09-09T04:50:15.472Z,0.00
2016-09-09T04:51:15.987Z,0.00
2016-09-09T04:52:16.498Z,0.00
2016-09-09T04:53:17.015Z,0.00
2016-09-09T04:54:17.534Z,0.00
2016-09-09T04:55:18.048Z,0.00
2016-09-09T04:56:18.561Z,0.00
2016-09-09T04:57:19.104Z,0.00
2016-09-09T04:58:19.591Z,0.00
2016-09-09T04:59:20.098Z,0.00
2016-09-09T05:00:20.717Z,0.00
2016-09-09T05:01:21.134Z,0.00
2016-09-09T05:02:21.947Z,0.00
2016-09-09T05:03:22.163Z,0.00
2016-09-09T05:04:22.681Z,0.00
2016-09-09T05:05:23.203Z,0.00
2016-09-09T05:06:24.652Z,0.00
2016-09-09T05:07:24.254Z,0.00
2016-09-09T05:08:24.749Z,0.00
2016-09-09T05:09:25.269Z,0.00
2016-09-09T05:10:25.784Z,0.00
2016-09-09T05:11:26.296Z,0.00
2016-09-09T05:12:26.805Z,0.00
2016-09-09T05:13:27.322Z,0.00
2016-09-09T05:14:27.836Z,0.00
2016-09-09T05:15:28.347Z,1.00
2016-09-09T05:16:28.880Z,1.00
2016-09-09T05:17:29.523Z,1.00
2016-09-09T05:18:30.040Z,1.00
2016-09-09T05:19:30.404Z,1.00
2016-09-09T05:20:30.915Z,1.00
2016-09-09T05:21:31.433Z,1.00
2016-09-09T05:22:32.094Z,1.00
2016-09-09T05:23:32.460Z,1.00
2016-09-09T05:24:33.121Z,1.00
2016-09-09T05:25:33.485Z,1.00
2016-09-09T05:26:34.151Z,1.00
2016-09-09T05:27:34.817Z,1.00
2016-09-09T05:28:35.029Z,1.00
2016-09-09T05:29:35.548Z,1.00
2016-09-09T05:30:36.061Z,1.00
2016-09-09T05:31:36.577Z,1.00
2016-09-09T05:32:37.085Z,1.00
2016-09-09T05:33:37.601Z,1.00
2016-09-09T05:34:38.271Z,1.00
2016-09-09T05:35:38.632Z,1.00
2016-09-09T05:36:40.948Z,1.00
2016-09-09T05:37:39.662Z,1.00
2016-09-09T05:38:40.327Z,1.00
2016-09-09T05:39:40.695Z,1.00
2016-09-09T05:40:41.203Z,1.00
2016-09-09T05:41:41.878Z,1.00
2016-09-09T05:42:42.240Z,1.00
2016-09-09T05:43:42.764Z,2.00
2016-09-09T05:44:43.291Z,2.00
2016-09-09T05:45:43.794Z,2.00
2016-09-09T05:46:44.308Z,2.00
2016-09-09T05:47:44.819Z,2.00
2016-09-09T05:48:45.350Z,2.00
2016-09-09T05:49:45.852Z,2.00
2016-09-09T05:50:46.520Z,2.00
2016-09-09T05:51:47.041Z,2.00
2016-09-09T05:52:47.537Z,2.00
2016-09-09T05:53:49.402Z,2.00
2016-09-09T05:54:48.432Z,2.00
2016-09-09T05:55:48.931Z,3.00
2016-09-09T05:56:49.448Z,3.00
2016-09-09T05:57:49.954Z,3.00
2016-09-09T05:58:50.629Z,3.00
2016-09-09T05:59:50.989Z,3.00
2016-09-09T06:00:51.504Z,3.00
2016-09-09T06:01:52.013Z,3.00
2016-09-09T06:02:52.541Z,3.00
2016-09-09T06:03:53.192Z,3.00
2016-09-09T06:04:53.710Z,4.00
2016-09-09T06:05:54.077Z,4.00
2016-09-09T06:06:54.591Z,4.00
2016-09-09T06:07:55.104Z,4.00
2016-09-09T06:08:55.643Z,4.00
2016-09-09T06:09:56.129Z,4.00
2016-09-09T06:10:56.644Z,4.00
2016-09-09T06:11:57.152Z,4.00
2016-09-09T06:12:57.675Z,5.00
2016-09-09T06:13:58.193Z,5.00
2016-09-09T06:14:58.697Z,5.00
2016-09-09T06:15:59.213Z,5.00
2016-09-09T06:16:59.726Z,5.00
2016-09-09T06:18:00.270Z,5.00
2016-09-09T06:19:00.797Z,5.00
2016-09-09T06:20:01.433Z,5.00
2016-09-09T06:21:01.949Z,5.00
2016-09-09T06:22:02.319Z,5.00
2016-09-09T06:23:02.831Z,5.00
2016-09-09T06:24:03.346Z,5.00
2016-09-09T06:25:04.031Z,6.00
2016-09-09T06:26:04.525Z,6.00
2016-09-09T06:27:04.889Z,6.00
2016-09-09T06:28:05.404Z,7.00
2016-09-09T06:29:06.819Z,7.00
2016-09-09T06:30:06.432Z,8.00
2016-09-09T06:31:06.952Z,8.00
2016-09-09T06:32:07.462Z,8.00
2016-09-09T06:33:07.979Z,8.00
2016-09-09T06:34:08.516Z,8.00
2016-09-09T06:35:09.163Z,9.00
2016-09-09T06:36:09.526Z,9.00
2016-09-09T06:37:10.053Z,10.00
2016-09-09T06:38:10.554Z,10.00
2016-09-09T06:39:11.075Z,11.00
2016-09-09T06:40:11.735Z,11.00
2016-09-09T06:41:12.095Z,11.00
2016-09-09T06:42:12.609Z,11.00
2016-09-09T06:43:13.302Z,10.00
2016-09-09T06:44:13.637Z,10.00
2016-09-09T06:45:14.299Z,10.00
2016-09-09T06:46:14.666Z,11.00
2016-09-09T06:47:15.331Z,11.00
2016-09-09T06:48:15.711Z,11.00
2016-09-09T06:49:16.223Z,11.00
2016-09-09T06:50:16.726Z,11.00
2016-09-09T06:51:17.249Z,10.00
2016-09-09T06:52:17.759Z,10.00
2016-09-09T06:53:18.421Z,10.00
2016-09-09T06:54:18.791Z,10.00
2016-09-09T06:55:19.310Z,11.00
2016-09-09T06:56:19.829Z,11.00
2016-09-09T06:57:20.350Z,11.00
2016-09-09T06:58:20.879Z,11.00
2016-09-09T06:59:21.394Z,11.00
2016-09-09T07:00:22.040Z,11.00
2016-09-09T07:01:22.408Z,11.00
2016-09-09T07:02:22.920Z,11.00
2016-09-09T07:03:23.439Z,11.00
2016-09-09T07:04:24.105Z,11.00
2016-09-09T07:05:24.476Z,11.00
2016-09-09T07:06:24.988Z,11.00
2016-09-09T07:07:25.507Z,11.00
2016-09-09T07:08:26.166Z,11.00
2016-09-09T07:09:26.530Z,11.00
2016-09-09T07:10:27.072Z,10.00
2016-09-09T07:11:27.711Z,11.00
2016-09-09T07:12:28.075Z,11.00
2016-09-09T07:13:28.738Z,12.00
2016-09-09T07:14:29.102Z,13.00
2016-09-09T07:15:29.634Z,13.00
2016-09-09T07:16:30.158Z,13.00
2016-09-09T07:17:30.816Z,13.00
2016-09-09T07:18:31.160Z,13.00
2016-09-09T07:19:31.674Z,14.00
2016-09-09T07:20:32.183Z,14.00
2016-09-09T07:21:32.702Z,16.00
2016-09-09T07:22:33.238Z,15.00
2016-09-09T07:23:33.875Z,15.00
2016-09-09T07:24:34.239Z,15.00
2016-09-09T07:25:34.758Z,16.00
2016-09-09T07:26:35.271Z,16.00
2016-09-09T07:27:35.783Z,15.00
2016-09-09T07:28:36.325Z,15.00
2016-09-09T07:29:38.465Z,15.00
2016-09-09T07:30:37.335Z,15.00
2016-09-09T07:31:37.854Z,15.00
2016-09-09T07:32:38.373Z,15.00
2016-09-09T07:33:38.887Z,15.00
2016-09-09T07:34:39.405Z,15.00
2016-09-09T07:35:40.069Z,15.00
2016-09-09T07:36:40.434Z,15.00
2016-09-09T07:37:40.948Z,15.00
2016-09-09T07:38:41.484Z,15.00
2016-09-09T07:39:42.132Z,15.00
2016-09-09T07:40:42.647Z,16.00
2016-09-09T07:41:43.160Z,15.00
2016-09-09T07:42:43.520Z,15.00
2016-09-09T07:43:44.034Z,15.00
2016-09-09T07:44:44.545Z,15.00
2016-09-09T07:45:45.061Z,15.00
2016-09-09T07:46:45.574Z,15.00
2016-09-09T07:47:46.088Z,15.00
2016-09-09T07:48:46.603Z,15.00
2016-09-09T07:49:47.113Z,14.00
2016-09-09T07:50:47.629Z,13.00
2016-09-09T07:51:48.151Z,13.00
2016-09-09T07:52:48.661Z,13.00
2016-09-09T07:53:49.182Z,13.00
2016-09-09T07:54:49.692Z,13.00
2016-09-09T07:55:50.358Z,13.00
2016-09-09T07:56:50.871Z,13.00
2016-09-09T07:57:51.531Z,13.00
2016-09-09T07:58:51.743Z,14.00
2016-09-09T07:59:52.708Z,14.00
2016-09-09T08:00:52.770Z,15.00
2016-09-09T08:01:53.323Z,15.00
2016-09-09T08:02:53.950Z,15.00
2016-09-09T08:03:54.311Z,15.00
2016-09-09T08:04:54.826Z,15.00
2016-09-09T08:05:55.338Z,16.00
2016-09-09T08:06:55.858Z,18.00
2016-09-09T08:07:56.406Z,21.00
2016-09-09T08:08:56.894Z,20.00
2016-09-09T08:09:57.411Z,21.00
2016-09-09T08:10:58.085Z,22.00
2016-09-09T08:11:58.437Z,22.00
2016-09-09T08:12:59.102Z,22.00
2016-09-09T08:13:59.614Z,21.00
2016-09-09T08:14:59.976Z,20.00
2016-09-09T08:16:00.490Z,19.00
2016-09-09T08:17:01.150Z,19.00
2016-09-09T08:18:01.663Z,18.00
2016-09-09T08:19:02.024Z,17.00
2016-09-09T08:20:02.539Z,17.00
2016-09-09T08:21:03.049Z,16.00
2016-09-09T08:22:03.564Z,16.00
2016-09-09T08:23:04.078Z,16.00
2016-09-09T08:24:04.740Z,15.00
2016-09-09T08:25:05.106Z,15.00
2016-09-09T08:26:05.621Z,15.00
2016-09-09T08:27:06.133Z,15.00
2016-09-09T08:28:06.666Z,15.00
2016-09-09T08:29:07.165Z,16.00
2016-09-09T08:30:07.678Z,16.00
2016-09-09T08:31:08.194Z,17.00
2016-09-09T08:32:08.711Z,18.00
2016-09-09T08:33:09.222Z,18.00
2016-09-09T08:34:10.033Z,18.00
2016-09-09T08:35:10.250Z,18.00
2016-09-09T08:36:10.765Z,18.00
2016-09-09T08:37:11.281Z,18.00
2016-09-09T08:38:11.798Z,18.00
2016-09-09T08:39:12.312Z,18.00
2016-09-09T08:40:12.821Z,18.00
2016-09-09T08:41:13.342Z,18.00
2016-09-09T08:42:13.846Z,18.00
2016-09-09T08:43:14.365Z,18.00
2016-09-09T08:44:15.641Z,18.00
2016-09-09T08:45:15.402Z,18.00
2016-09-09T08:46:15.921Z,17.00
2016-09-09T08:47:16.585Z,17.00
2016-09-09T08:48:16.943Z,16.00
2016-09-09T08:49:18.061Z,17.00
2016-09-09T08:50:17.976Z,17.00
2016-09-09T08:51:18.488Z,17.00
2016-09-09T08:52:19.006Z,16.00
2016-09-09T08:53:19.518Z,16.00
2016-09-09T08:54:20.034Z,16.00
2016-09-09T08:55:20.694Z,16.00
2016-09-09T08:56:21.062Z,15.00
2016-09-09T08:57:21.572Z,15.00
2016-09-09T08:58:22.084Z,14.00
2016-09-09T08:59:22.747Z,14.00
2016-09-09T09:00:23.120Z,14.00
2016-09-09T09:01:23.784Z,15.00
2016-09-09T09:02:24.146Z,16.00
2016-09-09T09:03:24.661Z,17.00
2016-09-09T09:04:25.173Z,19.00
2016-09-09T09:05:25.691Z,19.00
2016-09-09T09:06:26.204Z,18.00
2016-09-09T09:07:26.724Z,18.00
2016-09-09T09:08:27.259Z,18.00
2016-09-09T09:09:27.749Z,17.00
2016-09-09T09:10:28.262Z,17.00
2016-09-09T09:11:28.800Z,18.00
2016-09-09T09:12:29.296Z,18.00
2016-09-09T09:13:29.808Z,18.00
2016-09-09T09:14:30.330Z,24.00
2016-09-09T09:15:30.837Z,28.00
2016-09-09T09:16:31.362Z,20.00
2016-09-09T09:17:32.016Z,20.00
2016-09-09T09:18:32.395Z,20.00
2016-09-09T09:19:32.901Z,19.00
2016-09-09T09:20:33.417Z,19.00
2016-09-09T09:21:34.089Z,18.00
2016-09-09T09:22:34.482Z,19.00
2016-09-09T09:23:35.118Z,20.00
2016-09-09T09:24:35.475Z,20.00
2016-09-09T09:25:35.990Z,20.00
2016-09-09T09:26:36.500Z,20.00
2016-09-09T09:27:37.165Z,21.00
2016-09-09T09:28:37.532Z,22.00
2016-09-09T09:29:38.196Z,22.00
2016-09-09T09:30:38.555Z,23.00
2016-09-09T09:31:39.221Z,23.00
2016-09-09T09:32:39.588Z,24.00
2016-09-09T09:33:40.254Z,25.00
2016-09-09T09:34:40.615Z,25.00
2016-09-09T09:35:41.162Z,26.00
2016-09-09T09:36:41.642Z,27.00
2016-09-09T09:37:42.160Z,30.00
2016-09-09T09:38:42.674Z,28.00
2016-09-09T09:39:43.187Z,29.00
2016-09-09T09:40:43.700Z,27.00
2016-09-09T09:41:44.212Z,25.00
2016-09-09T09:42:44.729Z,25.00
2016-09-09T09:43:45.242Z,25.00
2016-09-09T09:44:45.761Z,24.00
2016-09-09T09:45:46.270Z,23.00
2016-09-09T09:46:46.937Z,23.00
2016-09-09T09:47:47.320Z,23.00
2016-09-09T09:48:47.807Z,23.00
2016-09-09T09:49:48.327Z,23.00
2016-09-09T09:50:48.986Z,23.00
2016-09-09T09:51:49.351Z,23.00
2016-09-09T09:52:49.862Z,23.00
2016-09-09T09:53:50.374Z,22.00
2016-09-09T09:54:51.942Z,24.00
2016-09-09T09:55:51.558Z,21.00
2016-09-09T09:56:51.933Z,21.00
2016-09-09T09:57:52.595Z,22.00
2016-09-09T09:58:52.976Z,21.00
2016-09-09T09:59:53.478Z,22.00
2016-09-09T10:00:54.006Z,22.00
2016-09-09T10:01:54.511Z,23.00
2016-09-09T10:02:55.018Z,24.00
2016-09-09T10:03:55.685Z,23.00
2016-09-09T10:04:56.051Z,22.00
2016-09-09T10:05:56.564Z,23.00
2016-09-09T10:06:57.082Z,22.00
2016-09-09T10:07:57.593Z,24.00
2016-09-09T10:08:58.258Z,36.00
2016-09-09T10:09:58.622Z,36.00
2016-09-09T10:10:59.163Z,35.00
2016-09-09T10:11:59.651Z,35.00
2016-09-09T10:13:00.466Z,27.00
2016-09-09T10:14:00.702Z,27.00
2016-09-09T10:15:01.344Z,26.00
2016-09-09T10:16:01.710Z,26.00
2016-09-09T10:17:02.522Z,26.00
2016-09-09T10:18:02.888Z,27.00
2016-09-09T10:19:03.249Z,25.00
2016-09-09T10:20:03.766Z,27.00
2016-09-09T10:21:04.273Z,24.00
2016-09-09T10:22:04.935Z,23.00
2016-09-09T10:23:05.302Z,23.00
2016-09-09T10:24:05.816Z,23.00
2016-09-09T10:25:06.325Z,23.00
2016-09-09T10:26:06.983Z,23.00
2016-09-09T10:27:07.501Z,23.00
2016-09-09T10:28:07.865Z,23.00
2016-09-09T10:29:08.382Z,22.00
2016-09-09T10:30:08.894Z,22.00
2016-09-09T10:31:09.409Z,22.00
2016-09-09T10:32:09.922Z,23.00
2016-09-09T10:33:10.442Z,24.00
2016-09-09T10:34:10.957Z,25.00
2016-09-09T10:35:11.624Z,26.00
2016-09-09T10:36:11.988Z,27.00
2016-09-09T10:37:12.506Z,27.00
2016-09-09T10:38:13.015Z,26.00
2016-09-09T10:39:13.685Z,26.00
2016-09-09T10:40:14.058Z,27.00
2016-09-09T10:41:14.562Z,27.00
2016-09-09T10:42:15.072Z,27.00
2016-09-09T10:43:15.586Z,27.00
2016-09-09T10:44:16.105Z,27.00
2016-09-09T10:45:18.420Z,27.00
2016-09-09T10:46:17.132Z,27.00
2016-09-09T10:47:17.668Z,27.00
2016-09-09T10:48:18.332Z,27.00
2016-09-09T10:49:18.677Z,27.00
2016-09-09T10:50:19.186Z,30.00
2016-09-09T10:51:19.850Z,30.00
2016-09-09T10:52:20.211Z,29.00
2016-09-09T10:53:20.727Z,26.00
2016-09-09T10:54:21.237Z,26.00
2016-09-09T10:55:21.902Z,25.00
2016-09-09T10:56:22.280Z,24.00
2016-09-09T10:57:22.931Z,24.00
2016-09-09T10:58:23.295Z,23.00
2016-09-09T10:59:23.802Z,23.00
2016-09-09T11:00:24.344Z,23.00
2016-09-09T11:01:24.827Z,25.00
2016-09-09T11:02:25.347Z,27.00
2016-09-09T11:03:25.861Z,27.00
2016-09-09T11:04:26.375Z,28.00
2016-09-09T11:05:26.890Z,31.00
2016-09-09T11:06:27.547Z,44.00
2016-09-09T11:07:27.907Z,44.00
2016-09-09T11:08:28.429Z,34.00
2016-09-09T11:09:28.945Z,49.00
2016-09-09T11:10:29.464Z,49.00
2016-09-09T11:11:30.127Z,49.00
2016-09-09T11:12:30.501Z,48.00
2016-09-09T11:13:31.307Z,29.00
2016-09-09T11:14:31.521Z,46.00
2016-09-09T11:15:33.538Z,46.00
2016-09-09T11:16:32.568Z,46.00
2016-09-09T11:17:33.061Z,36.00
2016-09-09T11:18:33.577Z,36.00
2016-09-09T11:19:34.271Z,35.00
2016-09-09T11:20:34.612Z,31.00
2016-09-09T11:21:35.125Z,25.00
2016-09-09T11:22:35.634Z,28.00
2016-09-09T11:23:36.150Z,29.00
2016-09-09T11:24:36.661Z,34.00
2016-09-09T11:25:37.176Z,29.00
2016-09-09T11:26:37.689Z,39.00
2016-09-09T11:27:38.201Z,33.00
2016-09-09T11:28:38.717Z,50.00
2016-09-09T11:29:39.382Z,51.00
2016-09-09T11:30:39.902Z,52.00
2016-09-09T11:31:40.260Z,53.00
2016-09-09T11:32:40.781Z,54.00
2016-09-09T11:33:41.292Z,54.00
2016-09-09T11:34:41.953Z,54.00
2016-09-09T11:35:42.331Z,55.00
2016-09-09T11:36:42.987Z,56.00
2016-09-09T11:37:43.343Z,56.00
2016-09-09T11:38:43.863Z,56.00
2016-09-09T11:39:44.371Z,55.00
2016-09-09T11:40:44.887Z,55.00
2016-09-09T11:41:45.553Z,59.00
2016-09-09T11:42:45.915Z,59.00
2016-09-09T11:43:46.428Z,58.00
2016-09-09T11:44:46.945Z,59.00
2016-09-09T11:45:47.494Z,59.00
2016-09-09T11:46:47.983Z,59.00
2016-09-09T11:47:48.500Z,60.00
2016-09-09T11:48:49.014Z,59.00
2016-09-09T11:49:49.537Z,59.00
2016-09-09T11:50:50.069Z,60.00
2016-09-09T11:51:50.558Z,60.00
2016-09-09T11:52:51.219Z,60.00
2016-09-09T11:53:51.733Z,61.00
2016-09-09T11:54:52.099Z,61.00
2016-09-09T11:55:52.620Z,62.00
2016-09-09T11:56:53.125Z,63.00
2016-09-09T11:57:53.640Z,62.00
2016-09-09T11:58:54.191Z,61.00
2016-09-09T11:59:54.698Z,61.00
2016-09-09T12:00:55.184Z,62.00
2016-09-09T12:01:55.712Z,60.00
2016-09-09T12:02:56.216Z,60.00
2016-09-09T12:03:56.880Z,61.00
2016-09-09T12:04:57.242Z,62.00
2016-09-09T12:05:57.758Z,63.00
2016-09-09T12:06:58.273Z,64.00
2016-09-09T12:07:58.804Z,63.00
2016-09-09T12:08:59.305Z,63.00
2016-09-09T12:09:59.817Z,65.00
2016-09-09T12:11:00.334Z,64.00
2016-09-09T12:12:00.999Z,67.00
2016-09-09T12:13:01.359Z,66.00
2016-09-09T12:14:01.905Z,63.00
2016-09-09T12:15:02.536Z,61.00
2016-09-09T12:16:02.900Z,36.00
2016-09-09T12:17:03.421Z,48.00
2016-09-09T12:18:03.939Z,54.00
2016-09-09T12:19:04.451Z,43.00
2016-09-09T12:20:04.971Z,33.00
2016-09-09T12:21:05.634Z,33.00
2016-09-09T12:22:05.997Z,31.00
2016-09-09T12:23:06.519Z,43.00
2016-09-09T12:24:07.034Z,30.00
2016-09-09T12:25:07.849Z,29.00
2016-09-09T12:26:08.091Z,29.00
2016-09-09T12:27:08.574Z,29.00
2016-09-09T12:28:09.241Z,30.00
2016-09-09T12:29:09.603Z,31.00
2016-09-09T12:30:10.136Z,30.00
2016-09-09T12:31:10.779Z,29.00
2016-09-09T12:32:11.145Z,28.00
2016-09-09T12:33:11.658Z,28.00
2016-09-09T12:34:12.322Z,28.00
2016-09-09T12:35:12.685Z,28.00
2016-09-09T12:36:13.201Z,28.00
2016-09-09T12:37:13.712Z,28.00
2016-09-09T12:38:14.226Z,29.00
2016-09-09T12:39:14.776Z,48.00
2016-09-09T12:40:15.252Z,50.00
2016-09-09T12:41:15.768Z,46.00
2016-09-09T12:42:16.434Z,66.00
2016-09-09T12:43:16.950Z,73.00
2016-09-09T12:44:17.313Z,75.00
2016-09-09T12:45:17.825Z,75.00
2016-09-09T12:46:18.343Z,76.00
2016-09-09T12:47:19.008Z,76.00
2016-09-09T12:48:19.516Z,76.00
2016-09-09T12:49:19.880Z,76.00
2016-09-09T12:50:20.410Z,76.00
2016-09-09T12:51:20.910Z,74.00
2016-09-09T12:52:21.578Z,72.00
2016-09-09T12:53:21.940Z,68.00
2016-09-09T12:54:22.483Z,69.00
2016-09-09T12:55:22.964Z,72.00
2016-09-09T12:56:23.480Z,72.00
2016-09-09T12:57:23.996Z,72.00
2016-09-09T12:58:24.665Z,73.00
2016-09-09T12:59:25.035Z,75.00
2016-09-09T13:00:25.551Z,75.00
2016-09-09T13:01:26.065Z,74.00
2016-09-09T13:02:26.574Z,73.00
2016-09-09T13:03:27.234Z,71.00
2016-09-09T13:04:27.606Z,73.00
2016-09-09T13:05:28.112Z,75.00
2016-09-09T13:06:28.624Z,78.00
2016-09-09T13:07:29.136Z,78.00
2016-09-09T13:08:29.650Z,75.00
2016-09-09T13:09:30.197Z,76.00
2016-09-09T13:10:30.686Z,77.00
2016-09-09T13:11:31.189Z,77.00
2016-09-09T13:12:31.702Z,76.00